Time;durP1;ratioP1;P1;durP2;ratioP2;P2;SDS_P1;SDS_P2;PMS_P1;PMS_P2;Temp;Humidity;BMP_temperature;BMP_pressure;BME280_temperature;BME280_humidity;BME280_pressure;Samples;Min_cycle;Max_cycle;Signal;HPM_P1;HPM_P2
2022/05/16 00:01:41;;;;;;;4.70;2.80;;;22.40;64.40;;;;;;5034349;28;20021;-68
2022/05/16 00:04:07;;;;;;;3.30;2.30;;;22.40;64.40;;;;;;5034127;28;20029;-68
2022/05/16 00:06:32;;;;;;;5.63;2.50;;;22.30;64.40;;;;;;5034146;28;20026;-68
2022/05/16 00:08:58;;;;;;;6.32;2.97;;;22.30;64.40;;;;;;5034140;28;20027;-68
2022/05/16 00:11:24;;;;;;;7.30;2.40;;;22.30;64.50;;;;;;5034047;28;20043;-68
2022/05/16 00:13:49;;;;;;;12.20;2.95;;;22.30;64.40;;;;;;5042912;28;20033;-68
2022/05/16 00:16:15;;;;;;;3.97;2.60;;;22.30;64.50;;;;;;5053827;28;20108;-68
2022/05/16 00:18:41;;;;;;;4.32;2.45;;;22.30;64.50;;;;;;5036098;28;20065;-68
2022/05/16 00:21:06;;;;;;;3.45;2.42;;;22.30;64.50;;;;;;5052863;28;20032;-68
2022/05/16 00:23:32;;;;;;;2.95;2.33;;;22.30;64.50;;;;;;5052445;28;20032;-68
2022/05/16 00:25:58;;;;;;;4.82;2.90;;;22.30;64.60;;;;;;5053846;28;20103;-68
2022/05/16 00:28:24;;;;;;;4.10;2.53;;;22.30;64.60;;;;;;5053651;28;20021;-68
2022/05/16 00:30:49;;;;;;;5.55;2.53;;;22.30;64.60;;;;;;5053425;28;20013;-68
2022/05/16 00:33:15;;;;;;;6.25;2.72;;;22.30;64.50;;;;;;5052558;28;20040;-68
2022/05/16 00:35:41;;;;;;;5.07;2.60;;;22.30;64.60;;;;;;5052299;28;20029;-68
2022/05/16 00:38:06;;;;;;;6.00;2.50;;;22.30;64.60;;;;;;5054056;28;20032;-68
2022/05/16 00:40:32;;;;;;;4.50;2.50;;;22.30;64.60;;;;;;5053359;28;20135;-68
2022/05/16 00:43:06;;;;;;;4.03;2.45;;;22.30;64.60;;;;;;5038575;28;20095;-68
2022/05/16 00:45:32;;;;;;;4.10;2.58;;;22.30;64.60;;;;;;5031975;28;20036;-68
2022/05/16 00:47:57;;;;;;;3.90;2.60;;;22.30;64.60;;;;;;5033459;28;20472;-68
2022/05/16 00:50:23;;;;;;;3.92;2.60;;;22.30;64.60;;;;;;5032214;28;20021;-68
2022/05/16 00:52:49;;;;;;;7.65;2.65;;;22.30;64.70;;;;;;5033128;28;20029;-68
2022/05/16 00:55:27;;;;;;;5.50;2.45;;;22.30;64.60;;;;;;5032251;28;20021;-68
2022/05/16 00:57:54;;;;;;;6.53;3.10;;;22.30;64.70;;;;;;5032368;28;20129;-68
2022/05/16 01:00:26;;;;;;;2.90;2.30;;;22.30;64.70;;;;;;5030971;28;20028;-68
2022/05/16 01:05:50;;;;;;;3.38;2.15;;;22.30;64.70;;;;;;5032304;28;20052;-68
2022/05/16 01:08:17;;;;;;;5.80;2.60;;;22.30;64.80;;;;;;5033080;28;20080;-68
2022/05/16 01:10:43;;;;;;;2.97;2.35;;;22.20;64.70;;;;;;5031758;28;20029;-68
2022/05/16 01:13:09;;;;;;;2.63;2.20;;;22.20;64.80;;;;;;5035073;28;20025;-68
2022/05/16 01:15:41;;;;;;;5.68;2.58;;;22.20;64.80;;;;;;5052494;28;20298;-68
2022/05/16 01:18:09;;;;;;;4.43;2.25;;;22.30;64.80;;;;;;5052875;28;20037;-68
2022/05/16 01:21:05;;;;;;;4.07;2.80;;;22.20;64.80;;;;;;5035552;28;20087;-68
2022/05/16 01:23:34;;;;;;;5.50;2.55;;;22.30;64.80;;;;;;5052596;28;20029;-68
2022/05/16 01:26:00;;;;;;;2.75;2.28;;;22.20;64.80;;;;;;5035426;28;20021;-68
2022/05/16 01:28:26;;;;;;;2.47;2.20;;;22.20;64.80;;;;;;5051364;28;20039;-68
2022/05/16 01:30:54;;;;;;;5.18;2.35;;;22.20;64.80;;;;;;5051200;28;20025;-68
2022/05/16 01:33:22;;;;;;;3.35;2.00;;;22.20;64.90;;;;;;5035321;28;20021;-68
2022/05/16 01:35:47;;;;;;;3.95;2.63;;;22.20;64.90;;;;;;5052232;28;20036;-68
2022/05/16 01:38:19;;;;;;;7.03;2.75;;;22.20;64.80;;;;;;5051443;28;20025;-68
2022/05/16 01:40:46;;;;;;;4.70;2.00;;;22.20;64.80;;;;;;5051009;28;20052;-68
2022/05/16 01:43:12;;;;;;;5.78;2.67;;;22.20;64.90;;;;;;5035924;28;20037;-68
2022/05/16 01:45:38;;;;;;;6.47;2.30;;;22.20;65.00;;;;;;5031103;28;20030;-68
2022/05/16 01:48:04;;;;;;;5.65;2.47;;;22.20;65.00;;;;;;5031385;28;20068;-68
2022/05/16 01:50:30;;;;;;;4.32;2.35;;;22.20;65.00;;;;;;5032503;28;20039;-68
2022/05/16 01:52:55;;;;;;;5.70;2.13;;;22.20;65.00;;;;;;5032120;28;20021;-68
2022/05/16 01:55:21;;;;;;;3.72;2.20;;;22.20;65.00;;;;;;5031455;28;20120;-68
2022/05/16 01:57:47;;;;;;;6.80;2.38;;;22.20;65.00;;;;;;5032137;28;20030;-68
2022/05/16 02:00:14;;;;;;;5.10;2.70;;;22.20;65.00;;;;;;5032194;28;20420;-68
2022/05/16 02:02:41;;;;;;;4.35;2.40;;;22.20;65.00;;;;;;5032271;28;20026;-68
2022/05/16 02:05:07;;;;;;;6.40;2.58;;;22.20;65.00;;;;;;5031184;28;20021;-68
2022/05/16 02:07:33;;;;;;;5.22;2.50;;;22.20;65.00;;;;;;5031141;28;20021;-68
2022/05/16 02:09:59;;;;;;;8.10;2.70;;;22.20;65.00;;;;;;5032306;28;20081;-68
2022/05/16 02:12:24;;;;;;;6.70;2.53;;;22.20;65.00;;;;;;5034746;28;20052;-68
2022/05/16 02:14:50;;;;;;;5.43;2.35;;;22.20;65.00;;;;;;5053359;28;20028;-68
2022/05/16 02:17:16;;;;;;;4.80;2.47;;;22.20;65.00;;;;;;5056299;28;20009;-68
2022/05/16 02:19:41;;;;;;;4.03;2.38;;;22.20;65.00;;;;;;5056011;28;20029;-68
2022/05/16 02:24:51;;;;;;;3.67;2.35;;;22.20;65.10;;;;;;5054956;28;20032;-68
2022/05/16 02:27:17;;;;;;;2.92;2.20;;;22.10;65.00;;;;;;5055913;28;20037;-68
2022/05/16 02:29:44;;;;;;;3.95;2.30;;;22.20;65.10;;;;;;5056066;28;20032;-68
2022/05/16 02:32:10;;;;;;;3.15;2.50;;;22.20;65.20;;;;;;5054763;28;20029;-68
2022/05/16 02:34:36;;;;;;;5.95;2.17;;;22.10;65.10;;;;;;5038201;28;20021;-68
2022/05/16 02:37:03;;;;;;;4.13;1.92;;;22.10;65.10;;;;;;5054579;28;20040;-68
2022/05/16 02:39:28;;;;;;;5.43;2.25;;;22.10;65.10;;;;;;5054575;28;20502;-68
2022/05/16 02:41:54;;;;;;;8.15;2.50;;;22.10;65.10;;;;;;5049481;28;20160;-68
2022/05/16 02:44:21;;;;;;;3.55;2.15;;;22.10;65.10;;;;;;5035706;28;20021;-68
2022/05/16 02:46:46;;;;;;;4.65;2.08;;;22.10;65.20;;;;;;5035625;28;20475;-68
2022/05/16 02:49:12;;;;;;;4.82;2.63;;;22.10;65.10;;;;;;5034388;28;20030;-68
2022/05/16 02:51:38;;;;;;;7.13;2.20;;;22.10;65.10;;;;;;5034469;28;20017;-68
2022/05/16 02:54:03;;;;;;;6.00;2.15;;;22.10;65.10;;;;;;5034304;28;20029;-68
2022/05/16 02:56:29;;;;;;;3.35;2.10;;;22.10;65.10;;;;;;5035503;28;20034;-68
2022/05/16 02:58:55;;;;;;;3.28;2.05;;;22.10;65.10;;;;;;5035351;28;20021;-68
2022/05/16 03:01:20;;;;;;;6.10;2.53;;;22.10;65.20;;;;;;5034374;28;20029;-68
2022/05/16 03:03:46;;;;;;;2.63;2.03;;;22.10;65.20;;;;;;5034283;28;20025;-68
2022/05/16 03:06:12;;;;;;;2.78;1.95;;;22.10;65.20;;;;;;5034230;28;20390;-68
2022/05/16 03:08:38;;;;;;;3.67;1.70;;;22.10;65.20;;;;;;5034273;28;20026;-68
2022/05/16 03:11:04;;;;;;;5.47;2.15;;;22.10;65.20;;;;;;5033682;28;20083;-68
2022/05/16 03:13:31;;;;;;;3.55;1.90;;;22.10;65.20;;;;;;5040029;28;20048;-68
2022/05/16 03:15:58;;;;;;;3.22;2.05;;;22.10;65.20;;;;;;5054039;28;20033;-68
2022/05/16 03:18:23;;;;;;;7.38;2.60;;;22.10;65.20;;;;;;5055235;28;20150;-68
2022/05/16 03:20:50;;;;;;;5.10;2.45;;;22.10;65.20;;;;;;5054942;28;20112;-68
2022/05/16 03:23:16;;;;;;;3.30;2.28;;;22.10;65.30;;;;;;5054037;28;20028;-68
2022/05/16 03:25:41;;;;;;;4.75;2.10;;;22.10;65.30;;;;;;5054752;28;20033;-68
2022/05/16 03:28:07;;;;;;;2.95;2.20;;;22.10;65.30;;;;;;5054814;28;20017;-68
2022/05/16 03:30:33;;;;;;;4.45;2.10;;;22.10;65.30;;;;;;5053941;28;20483;-68
2022/05/16 03:32:58;;;;;;;5.32;2.30;;;22.10;65.30;;;;;;5053325;28;20494;-68
2022/05/16 03:35:24;;;;;;;4.47;2.00;;;22.00;65.20;;;;;;5054874;28;20109;-68
2022/05/16 03:37:50;;;;;;;3.08;2.30;;;22.10;65.30;;;;;;5053479;28;20056;-68
2022/05/16 03:43:00;;;;;;;3.60;2.08;;;22.00;65.20;;;;;;5038571;28;20045;-68
2022/05/16 03:45:25;;;;;;;4.72;2.10;;;22.00;65.30;;;;;;5034757;28;20426;-68
2022/05/16 03:47:51;;;;;;;3.17;2.28;;;22.00;65.30;;;;;;5034566;28;20025;-68
2022/05/16 03:50:17;;;;;;;4.15;2.10;;;22.00;65.30;;;;;;5033203;28;20032;-68
2022/05/16 03:52:42;;;;;;;2.35;1.92;;;22.00;65.30;;;;;;5034621;28;20068;-68
2022/05/16 03:55:09;;;;;;;5.60;2.20;;;22.00;65.30;;;;;;5034164;28;20079;-68
2022/05/16 03:57:35;;;;;;;2.80;1.83;;;22.00;65.40;;;;;;5033335;28;20022;-68
2022/05/16 04:00:00;;;;;;;4.65;2.15;;;22.00;65.40;;;;;;5032896;28;20036;-68
2022/05/16 04:02:26;;;;;;;2.58;1.92;;;22.00;65.40;;;;;;5034317;28;20100;-68
2022/05/16 04:04:52;;;;;;;6.60;2.47;;;22.00;65.40;;;;;;5034128;28;20021;-68
2022/05/16 04:07:18;;;;;;;2.90;2.03;;;22.00;65.40;;;;;;5034388;28;20064;-68
2022/05/16 04:09:43;;;;;;;5.75;1.90;;;22.00;65.40;;;;;;5033052;28;20029;-68
2022/05/16 04:12:09;;;;;;;3.08;2.15;;;22.00;65.50;;;;;;5033901;28;20023;-68
2022/05/16 04:14:35;;;;;;;5.72;2.13;;;22.00;65.40;;;;;;5048026;28;20028;-68
2022/05/16 04:17:00;;;;;;;2.80;1.80;;;22.00;65.40;;;;;;5052796;28;20025;-68
2022/05/16 04:19:26;;;;;;;5.97;2.13;;;22.00;65.50;;;;;;5053956;28;20491;-68
2022/05/16 04:21:52;;;;;;;3.25;1.98;;;22.00;65.50;;;;;;5053816;28;20025;-68
2022/05/16 04:24:17;;;;;;;5.53;1.95;;;22.00;65.50;;;;;;5053546;28;20082;-68
2022/05/16 04:26:43;;;;;;;2.95;1.90;;;22.00;65.50;;;;;;5053924;28;20022;-68
2022/05/16 04:29:09;;;;;;;5.45;2.17;;;22.00;66.00;;;;;;5052603;28;20529;-68
2022/05/16 04:31:34;;;;;;;4.38;2.33;;;22.00;65.50;;;;;;5052581;28;20021;-68
2022/05/16 04:34:00;;;;;;;5.85;2.10;;;22.00;65.50;;;;;;5052159;28;20410;-68
2022/05/16 04:36:26;;;;;;;4.65;2.20;;;22.00;65.50;;;;;;5052419;28;20032;-68
2022/05/16 04:38:51;;;;;;;7.40;2.05;;;22.00;65.50;;;;;;5053315;28;20032;-68
2022/05/16 04:44:01;;;;;;;3.05;1.88;;;22.00;65.60;;;;;;5032469;28;20036;-68
2022/05/16 04:46:27;;;;;;;2.90;1.88;;;22.00;65.70;;;;;;5033535;28;20396;-68
2022/05/16 04:48:53;;;;;;;3.25;2.10;;;22.00;65.70;;;;;;5033228;28;20105;-68
2022/05/16 04:51:18;;;;;;;2.78;1.75;;;22.00;65.70;;;;;;5033417;28;20025;-68
2022/05/16 04:53:44;;;;;;;3.63;1.85;;;22.00;65.70;;;;;;5032959;28;20022;-68
2022/05/16 04:56:10;;;;;;;2.97;1.58;;;22.00;65.70;;;;;;5033333;28;20029;-68
2022/05/16 04:58:35;;;;;;;3.65;2.08;;;22.00;65.70;;;;;;5033278;28;20025;-68
2022/05/16 05:01:01;;;;;;;3.25;1.75;;;22.00;65.80;;;;;;5032966;28;20032;-68
2022/05/16 05:03:27;;;;;;;5.05;2.08;;;21.90;65.70;;;;;;5031897;28;20033;-68
2022/05/16 05:05:53;;;;;;;3.17;1.90;;;21.90;65.70;;;;;;5033117;28;20667;-68
2022/05/16 05:08:18;;;;;;;2.65;2.00;;;22.00;65.80;;;;;;5031699;28;20025;-68
2022/05/16 05:16:17;;;;;;;4.03;1.77;;;22.00;65.90;;;;;;5050396;28;20043;-68
2022/05/16 05:18:44;;;;;;;2.65;1.73;;;22.00;65.90;;;;;;5032780;28;20120;-68
2022/05/16 05:21:09;;;;;;;4.50;2.15;;;22.00;66.00;;;;;;5048872;28;20028;-68
2022/05/16 05:23:37;;;;;;;4.03;1.83;;;21.90;65.80;;;;;;5040953;28;20079;-69
2022/05/16 05:26:03;;;;;;;3.10;2.00;;;21.90;65.80;;;;;;5036726;28;20021;-68
2022/05/16 05:28:28;;;;;;;5.60;2.10;;;22.00;66.00;;;;;;5031693;28;20035;-68
2022/05/16 05:30:55;;;;;;;3.22;1.60;;;22.00;65.90;;;;;;5032754;28;20022;-68
2022/05/16 05:33:20;;;;;;;2.90;1.80;;;22.00;65.90;;;;;;5031652;28;20037;-68
2022/05/16 05:35:46;;;;;;;5.25;2.42;;;21.90;65.90;;;;;;5031242;28;20030;-68
2022/05/16 05:38:11;;;;;;;4.72;1.90;;;22.00;66.00;;;;;;5034789;28;20021;-69
2022/05/16 05:40:37;;;;;;;7.57;1.92;;;22.00;65.90;;;;;;5040539;28;20081;-69
2022/05/16 05:43:04;;;;;;;8.20;2.40;;;21.90;65.20;;;;;;5032443;28;20037;-69
2022/05/16 05:45:29;;;;;;;7.38;2.35;;;21.80;65.00;;;;;;5031277;28;20056;-69
2022/05/16 05:47:55;;;;;;;8.10;2.47;;;21.70;65.90;;;;;;5031589;28;20025;-69
2022/05/16 05:50:21;;;;;;;7.35;2.20;;;21.60;64.80;;;;;;5032753;28;20018;-69
2022/05/16 05:52:46;;;;;;;12.35;3.25;;;21.50;64.80;;;;;;5032976;28;20484;-69
2022/05/16 05:55:12;;;;;;;10.65;2.40;;;21.40;64.50;;;;;;5032856;28;20051;-69
2022/05/16 05:57:38;;;;;;;12.10;3.13;;;21.40;64.70;;;;;;5032965;28;20042;-69
2022/05/16 06:00:04;;;;;;;10.77;2.50;;;21.40;64.60;;;;;;5032734;28;20034;-69
2022/05/16 06:02:30;;;;;;;6.03;1.95;;;21.30;64.50;;;;;;5031519;28;20065;-69
2022/05/16 06:04:56;;;;;;;14.82;2.45;;;21.30;64.40;;;;;;5032601;28;20017;-68
2022/05/16 06:07:21;;;;;;;9.93;2.67;;;21.20;64.40;;;;;;5032920;28;20083;-68
2022/05/16 06:09:47;;;;;;;11.23;2.72;;;21.20;64.30;;;;;;5031598;28;20022;-67
2022/05/16 06:12:12;;;;;;;10.77;2.60;;;21.20;64.20;;;;;;5032559;28;20029;-67
2022/05/16 06:14:38;;;;;;;9.57;2.28;;;21.20;64.10;;;;;;5048051;28;20033;-67
2022/05/16 06:17:04;;;;;;;10.63;2.42;;;21.10;64.00;;;;;;5051417;28;20059;-67
2022/05/16 06:19:29;;;;;;;14.13;2.58;;;21.10;64.00;;;;;;5052297;28;20060;-67
2022/05/16 06:21:55;;;;;;;7.90;2.00;;;21.10;64.00;;;;;;5051374;28;20021;-67
2022/05/16 06:27:06;;;;;;;9.60;2.72;;;21.00;63.90;;;;;;5050299;28;20028;-67
2022/05/16 06:29:31;;;;;;;7.03;2.25;;;21.00;63.90;;;;;;5050843;28;20025;-68
2022/05/16 06:31:57;;;;;;;10.30;2.33;;;21.00;63.90;;;;;;5051270;28;20029;-68
2022/05/16 06:34:23;;;;;;;14.43;2.70;;;21.00;63.90;;;;;;5050838;28;20098;-67
2022/05/16 06:36:48;;;;;;;10.80;2.15;;;20.90;63.80;;;;;;5052293;28;20033;-67
2022/05/16 06:39:14;;;;;;;11.10;2.53;;;20.90;63.80;;;;;;5052225;28;20029;-67
2022/05/16 06:41:40;;;;;;;7.60;2.03;;;20.90;63.90;;;;;;5047152;28;20434;-68
2022/05/16 06:44:05;;;;;;;11.32;2.75;;;20.90;63.80;;;;;;5031086;28;20052;-69
2022/05/16 06:46:31;;;;;;;16.73;2.70;;;20.80;63.80;;;;;;5032103;28;20390;-67
2022/05/16 06:48:56;;;;;;;10.90;2.53;;;20.80;63.80;;;;;;5031153;28;20064;-67
2022/05/16 06:51:22;;;;;;;16.13;3.00;;;20.80;63.80;;;;;;5028398;28;20108;-67
2022/05/16 06:53:48;;;;;;;10.80;2.90;;;20.80;63.80;;;;;;5030210;28;20095;-67
2022/05/16 06:56:14;;;;;;;12.48;2.97;;;20.80;63.80;;;;;;5029950;28;20025;-67
2022/05/16 06:58:39;;;;;;;6.15;2.08;;;20.80;63.90;;;;;;5033621;28;20530;-67
2022/05/16 07:01:05;;;;;;;13.13;3.33;;;20.80;63.90;;;;;;5033511;28;20536;-67
2022/05/16 07:03:32;;;;;;;7.93;2.17;;;20.80;63.80;;;;;;5036753;28;20663;-67
2022/05/16 07:05:57;;;;;;;10.13;2.00;;;20.80;63.80;;;;;;5049973;28;20092;-67
2022/05/16 07:08:23;;;;;;;9.50;2.20;;;20.80;63.80;;;;;;5034990;28;20104;-67
2022/05/16 07:10:50;;;;;;;11.25;2.33;;;20.70;63.70;;;;;;5038587;28;20025;-67
2022/05/16 07:13:15;;;;;;;9.30;2.20;;;20.80;63.80;;;;;;5037455;28;20021;-67
2022/05/16 07:15:41;;;;;;;10.40;2.50;;;20.70;63.80;;;;;;5055012;28;20036;-67
2022/05/16 07:18:07;;;;;;;6.40;2.42;;;20.70;63.70;;;;;;5036903;28;20100;-67
2022/05/16 07:20:33;;;;;;;7.70;2.03;;;20.70;63.80;;;;;;5040490;28;20105;-67
2022/05/16 07:22:58;;;;;;;9.13;3.13;;;20.70;63.80;;;;;;5034895;28;20487;-67
2022/05/16 07:25:25;;;;;;;10.00;2.65;;;20.70;63.90;;;;;;5033739;28;20027;-67
2022/05/16 07:27:57;;;;;;;10.55;2.47;;;20.70;63.90;;;;;;5033668;28;20024;-67
2022/05/16 07:30:34;;;;;;;10.68;2.38;;;20.70;63.90;;;;;;5034811;28;20083;-67
2022/05/16 07:33:01;;;;;;;12.60;2.53;;;20.70;63.90;;;;;;5033267;28;20030;-67
2022/05/16 07:35:29;;;;;;;9.55;2.50;;;20.60;63.90;;;;;;5033752;28;20087;-67
2022/05/16 07:37:55;;;;;;;5.65;2.17;;;20.60;64.10;;;;;;5049640;28;20059;-67
2022/05/16 07:40:23;;;;;;;10.90;2.40;;;20.60;63.90;;;;;;5036506;28;20029;-67
2022/05/16 07:42:49;;;;;;;8.82;2.25;;;20.70;64.00;;;;;;5040030;28;20037;-67
2022/05/16 07:45:15;;;;;;;8.63;2.28;;;20.60;63.90;;;;;;5033574;28;20036;-67
2022/05/16 07:47:40;;;;;;;9.00;2.10;;;20.60;64.00;;;;;;5032951;28;20435;-67
2022/05/16 07:50:07;;;;;;;5.35;2.13;;;20.60;63.90;;;;;;5034890;28;20029;-67
2022/05/16 07:52:33;;;;;;;10.15;2.22;;;20.60;63.90;;;;;;5034597;28;20020;-67
2022/05/16 07:54:58;;;;;;;10.52;2.38;;;20.60;63.90;;;;;;5033150;28;20400;-67
2022/05/16 07:57:24;;;;;;;8.77;2.22;;;20.60;64.00;;;;;;5033027;28;20484;-67
2022/05/16 07:59:50;;;;;;;6.47;2.08;;;20.60;64.10;;;;;;5034384;28;20446;-67
2022/05/16 08:02:15;;;;;;;6.40;2.00;;;20.60;64.10;;;;;;5033885;28;20555;-67
2022/05/16 08:04:41;;;;;;;5.55;2.10;;;20.60;64.10;;;;;;5034146;28;20124;-67
2022/05/16 08:07:07;;;;;;;9.05;1.98;;;20.60;64.10;;;;;;5034128;28;20026;-67
2022/05/16 08:12:28;;;;;;;8.23;2.30;;;20.60;64.10;;;;;;5050759;28;20094;-67
2022/05/16 08:14:53;;;;;;;8.63;1.90;;;20.60;64.20;;;;;;5036104;28;20025;-67
2022/05/16 08:17:19;;;;;;;5.05;1.70;;;20.50;64.30;;;;;;5053748;28;20212;-67
2022/05/16 08:19:45;;;;;;;6.10;1.70;;;20.50;64.20;;;;;;5052809;28;20059;-67
2022/05/16 08:22:11;;;;;;;5.30;1.88;;;20.50;64.30;;;;;;5053961;28;20056;-67
2022/05/16 08:24:36;;;;;;;5.10;1.45;;;20.50;64.30;;;;;;5053789;28;20041;-67
2022/05/16 08:27:02;;;;;;;6.47;2.20;;;20.50;64.30;;;;;;5053753;28;20017;-67
2022/05/16 08:29:29;;;;;;;2.95;1.40;;;20.50;64.40;;;;;;5053254;28;20387;-67
2022/05/16 08:31:55;;;;;;;3.67;1.13;;;20.50;64.40;;;;;;5053902;28;20021;-67
2022/05/16 08:34:22;;;;;;;6.95;2.00;;;20.50;64.40;;;;;;5052196;28;20029;-67
2022/05/16 08:42:15;;;;;;;5.60;1.60;;;20.40;64.50;;;;;;5044264;28;20052;-68
2022/05/16 08:45:00;;;;;;;2.47;1.10;;;20.40;64.50;;;;;;5032095;28;20033;-67
2022/05/16 08:47:28;;;;;;;3.58;1.38;;;20.40;64.40;;;;;;5033171;28;20380;-68
2022/05/16 08:49:55;;;;;;;5.65;1.48;;;20.40;64.50;;;;;;5033444;28;20033;-67
2022/05/16 08:52:24;;;;;;;4.65;1.30;;;20.40;64.50;;;;;;5031818;28;20025;-68
2022/05/16 08:54:58;;;;;;;5.95;1.20;;;20.40;64.50;;;;;;5033496;28;20030;-68
2022/05/16 08:57:28;;;;;;;2.78;1.10;;;20.40;64.50;;;;;;5032032;28;20373;-68
2022/05/16 09:00:09;;;;;;;3.10;1.10;;;20.40;64.60;;;;;;5031839;28;20038;-68
2022/05/16 09:02:34;;;;;;;3.38;1.13;;;20.40;64.60;;;;;;5031971;28;20021;-68
2022/05/16 09:05:17;;;;;;;3.15;1.27;;;20.40;64.70;;;;;;5031881;28;20467;-68
2022/05/16 09:07:44;;;;;;;;;;;20.40;64.60;;;;;;5032274;28;20021;-68
2022/05/16 09:10:14;;;;;;;3.15;1.20;;;20.30;64.70;;;;;;5033330;28;20019;-68
2022/05/16 09:12:48;;;;;;;4.82;1.38;;;20.30;64.90;;;;;;5051839;28;20021;-68
2022/05/16 09:15:56;;;;;;;3.10;1.20;;;20.30;64.90;;;;;;5052589;28;20028;-68
2022/05/16 09:18:45;;;;;;;5.32;1.45;;;20.30;64.90;;;;;;5050409;28;20041;-68
2022/05/16 09:21:14;;;;;;;3.40;1.20;;;20.30;65.00;;;;;;5049850;28;20081;-68
2022/05/16 09:23:43;;;;;;;3.78;1.60;;;20.30;65.00;;;;;;5033700;28;20106;-67
2022/05/16 09:26:33;;;;;;;3.90;1.40;;;20.30;65.00;;;;;;5050393;28;20064;-67
2022/05/16 09:29:09;;;;;;;4.18;1.30;;;20.30;64.90;;;;;;5050203;28;20057;-68
2022/05/16 09:31:39;;;;;;;3.00;1.20;;;20.20;65.00;;;;;;5033734;28;20017;-67
2022/05/16 09:34:06;;;;;;;2.35;1.00;;;20.20;65.00;;;;;;5034047;28;20036;-68
2022/05/16 09:36:34;;;;;;;5.20;1.08;;;20.20;65.10;;;;;;5033895;28;20032;-67
2022/05/16 09:38:59;;;;;;;3.63;1.42;;;20.30;65.20;;;;;;5050288;28;20044;-67
2022/05/16 09:41:46;;;;;;;1.95;1.20;;;20.20;65.10;;;;;;5047857;28;20053;-68
2022/05/16 09:44:15;;;;;;;3.22;1.25;;;20.20;65.20;;;;;;5016201;28;20447;-67
2022/05/16 09:46:42;;;;;;;3.30;1.17;;;20.30;65.30;;;;;;5013691;28;20151;-67
2022/05/16 09:49:15;;;;;;;2.33;1.00;;;20.30;65.30;;;;;;5013841;28;20041;-67
2022/05/16 09:51:41;;;;;;;;;;;20.30;65.30;;;;;;5014758;28;20045;-67
2022/05/16 09:54:32;;;;;;;3.00;1.15;;;20.20;65.40;;;;;;5013642;28;19947;-67
2022/05/16 09:57:22;;;;;;;3.45;1.50;;;20.30;65.70;;;;;;5032556;28;20030;-68
2022/05/16 09:59:54;;;;;;;4.82;1.30;;;20.30;65.50;;;;;;5031099;28;20029;-67
2022/05/16 10:02:28;;;;;;;3.00;1.33;;;20.20;65.50;;;;;;5030844;28;20030;-68
2022/05/16 10:04:57;;;;;;;3.08;1.00;;;20.20;65.50;;;;;;5031125;28;20514;-67
2022/05/16 10:07:27;;;;;;;3.95;1.40;;;20.20;65.40;;;;;;5031022;28;20105;-67
2022/05/16 10:09:53;;;;;;;4.60;1.40;;;20.20;65.40;;;;;;5031362;28;20040;-67
2022/05/16 10:12:20;;;;;;;4.90;1.42;;;20.20;65.40;;;;;;5045230;28;20484;-67
2022/05/16 10:14:48;;;;;;;5.22;1.60;;;20.20;65.30;;;;;;5030980;28;20096;-67
2022/05/16 10:17:37;;;;;;;2.47;1.40;;;20.20;65.40;;;;;;5047115;28;20435;-67
2022/05/16 10:20:09;;;;;;;3.65;1.33;;;20.20;65.20;;;;;;5030849;28;20060;-67
2022/05/16 10:22:35;;;;;;;5.68;1.80;;;20.20;65.40;;;;;;5047078;28;20439;-67
2022/05/16 10:25:15;;;;;;;5.20;1.40;;;20.20;65.40;;;;;;5030832;28;20029;-67
2022/05/16 10:27:42;;;;;;;8.43;1.63;;;20.20;65.50;;;;;;5030646;28;20464;-67
2022/05/16 10:30:22;;;;;;;2.95;1.27;;;20.20;65.40;;;;;;5014350;28;20056;-67
2022/05/16 10:36:04;;;;;;;6.28;1.80;;;20.20;65.20;;;;;;5048973;28;20514;-67
2022/05/16 10:38:35;;;;;;;4.57;1.65;;;20.10;65.10;;;;;;5050989;28;20475;-67
2022/05/16 10:41:02;;;;;;;5.25;1.20;;;20.10;65.30;;;;;;5035367;28;20558;-67
2022/05/16 10:43:55;;;;;;;6.47;1.75;;;20.20;65.30;;;;;;5037586;28;20036;-67
2022/05/16 10:46:30;;;;;;;7.38;1.92;;;20.20;65.10;;;;;;5054495;28;20013;-67
2022/05/16 10:49:08;;;;;;;3.67;1.30;;;20.10;65.20;;;;;;5038038;28;20104;-67
2022/05/16 10:51:39;;;;;;;4.65;1.30;;;20.10;65.20;;;;;;5054685;28;20017;-67
2022/05/16 10:54:06;;;;;;;6.38;2.00;;;20.10;65.20;;;;;;5055437;28;20020;-67
2022/05/16 10:57:04;;;;;;;7.72;1.52;;;20.10;65.20;;;;;;5055240;28;20364;-67
2022/05/16 10:59:51;;;;;;;4.93;1.48;;;20.20;65.00;;;;;;5039689;28;20036;-67
2022/05/16 11:02:46;;;;;;;7.70;1.48;;;20.10;65.00;;;;;;5055293;28;20029;-67
2022/05/16 11:05:26;;;;;;;4.78;1.77;;;20.10;65.00;;;;;;5054322;28;20025;-67
2022/05/16 11:08:16;;;;;;;8.32;2.13;;;20.10;65.00;;;;;;5054160;28;20098;-67
2022/05/16 11:10:55;;;;;;;6.07;1.77;;;20.10;64.90;;;;;;5050117;28;20382;-67
2022/05/16 11:13:25;;;;;;;8.65;1.60;;;20.10;66.00;;;;;;5034220;28;20071;-67
2022/05/16 11:16:18;;;;;;;7.72;1.77;;;20.10;66.20;;;;;;5035124;28;20026;-67
2022/05/16 11:18:51;;;;;;;5.75;1.70;;;20.10;65.00;;;;;;5033880;28;20095;-67
2022/05/16 11:21:41;;;;;;;6.35;1.55;;;20.10;65.20;;;;;;5034032;28;20017;-67
2022/05/16 11:24:31;;;;;;;6.93;1.90;;;20.00;65.10;;;;;;5034815;28;20476;-67
2022/05/16 11:27:27;;;;;;;6.95;1.80;;;20.10;65.10;;;;;;5034896;28;20078;-67
2022/05/16 11:30:02;;;;;;;6.50;1.60;;;20.10;65.00;;;;;;5034230;28;20034;-67
2022/05/16 11:32:32;;;;;;;7.80;1.92;;;20.10;65.20;;;;;;5033688;28;20067;-67
2022/05/16 11:35:08;;;;;;;7.82;1.83;;;20.00;65.10;;;;;;5033796;28;20032;-67
2022/05/16 11:37:48;;;;;;;7.13;1.63;;;20.10;65.10;;;;;;5033504;28;20028;-67
2022/05/16 11:40:17;;;;;;;6.25;1.73;;;20.10;65.20;;;;;;5033529;28;20029;-67
2022/05/16 11:42:59;;;;;;;6.20;1.65;;;20.10;65.20;;;;;;5032572;28;20068;-67
2022/05/16 11:45:57;;;;;;;5.68;1.73;;;20.20;65.20;;;;;;5033557;28;20022;-67
2022/05/16 11:48:28;;;;;;;5.65;1.38;;;20.20;65.10;;;;;;5052232;28;20060;-67
2022/05/16 11:50:58;;;;;;;8.25;2.13;;;20.10;65.20;;;;;;5035550;28;20044;-67
2022/05/16 11:53:50;;;;;;;9.93;2.50;;;20.10;65.20;;;;;;5035350;28;20119;-67
2022/05/16 12:02:13;;;;;;;5.07;1.75;;;20.20;65.10;;;;;;5052102;28;20075;-67
2022/05/16 12:04:41;;;;;;;3.50;1.30;;;20.20;65.10;;;;;;5051969;28;20045;-67
2022/05/16 12:07:21;;;;;;;5.60;1.48;;;20.10;65.10;;;;;;5018884;28;20025;-67
2022/05/16 12:10:01;;;;;;;6.10;1.50;;;20.20;65.10;;;;;;5035374;28;20025;-67
2022/05/16 12:12:34;;;;;;;6.05;1.67;;;20.20;65.10;;;;;;5054295;28;20058;-67
2022/05/16 12:15:24;;;;;;;7.53;1.95;;;20.20;65.00;;;;;;5055254;28;20040;-67
2022/05/16 12:17:52;;;;;;;7.22;1.60;;;20.20;64.90;;;;;;5071488;28;20159;-67
2022/05/16 12:20:45;;;;;;;5.78;1.75;;;20.20;65.10;;;;;;5071913;28;20474;-67
2022/05/16 12:23:11;;;;;;;5.03;1.92;;;20.20;64.90;;;;;;5068513;28;20044;-67
2022/05/16 12:25:38;;;;;;;6.07;2.00;;;20.20;65.10;;;;;;5052471;28;20032;-67
2022/05/16 12:28:13;;;;;;;4.55;1.60;;;20.20;65.10;;;;;;5053749;28;20013;-67
2022/05/16 12:30:54;;;;;;;6.75;1.90;;;20.30;65.00;;;;;;5053785;28;20029;-67
2022/05/16 12:33:23;;;;;;;6.30;2.05;;;20.20;65.00;;;;;;5053768;28;20048;-67
2022/05/16 12:35:49;;;;;;;7.70;2.00;;;20.20;65.10;;;;;;5053510;28;20104;-67
2022/05/16 12:38:18;;;;;;;5.95;1.73;;;20.20;65.10;;;;;;5036010;28;20021;-67
2022/05/16 12:40:56;;;;;;;6.80;1.58;;;20.30;65.00;;;;;;5052121;28;20044;-67
2022/05/16 12:43:41;;;;;;;6.20;1.58;;;20.30;64.80;;;;;;5034400;28;20104;-67
2022/05/16 12:46:12;;;;;;;7.25;1.83;;;20.30;64.70;;;;;;5033544;28;20029;-67
2022/05/16 12:49:05;;;;;;;6.32;1.48;;;20.30;64.90;;;;;;5033508;28;20024;-67
2022/05/16 12:51:37;;;;;;;5.95;1.90;;;20.30;64.90;;;;;;5031737;28;20018;-67
2022/05/16 12:54:09;;;;;;;7.72;2.03;;;20.30;64.80;;;;;;5033390;28;20032;-67
2022/05/16 12:56:53;;;;;;;4.72;1.45;;;20.30;64.70;;;;;;5032258;28;20030;-67
2022/05/16 12:59:21;;;;;;;8.63;1.70;;;20.30;64.80;;;;;;5032157;28;20480;-67
2022/05/16 13:02:07;;;;;;;7.70;2.17;;;20.30;64.80;;;;;;5033122;28;20029;-67
2022/05/16 13:04:47;;;;;;;8.00;1.75;;;20.30;64.70;;;;;;5032115;28;20029;-67
2022/05/16 13:07:33;;;;;;;4.47;1.73;;;20.30;64.60;;;;;;5032136;28;20094;-67
2022/05/16 13:09:59;;;;;;;10.05;2.00;;;20.30;64.50;;;;;;5032003;28;20026;-67
2022/05/16 13:12:34;;;;;;;7.50;2.10;;;20.30;64.60;;;;;;5051621;28;20490;-67
2022/05/16 13:15:10;;;;;;;6.15;1.75;;;20.30;64.50;;;;;;5051668;28;20056;-67
2022/05/16 13:18:02;;;;;;;8.45;1.98;;;20.30;64.40;;;;;;5050878;28;20029;-67
2022/05/16 13:20:33;;;;;;;7.77;2.20;;;20.30;64.20;;;;;;5050028;28;20037;-67
2022/05/16 13:22:58;;;;;;;7.60;1.77;;;20.20;64.50;;;;;;5051459;28;20553;-67
2022/05/16 13:25:24;;;;;;;5.15;1.50;;;20.30;64.50;;;;;;5052735;28;20025;-67
2022/05/16 13:30:41;;;;;;;7.75;1.90;;;20.20;64.30;;;;;;5051710;28;20056;-67
2022/05/16 13:33:21;;;;;;;8.38;2.00;;;20.20;64.40;;;;;;5051474;28;20143;-67
2022/05/16 13:35:47;;;;;;;6.63;1.90;;;20.30;64.10;;;;;;5034695;28;20059;-67
2022/05/16 13:38:13;;;;;;;8.55;1.70;;;20.20;64.30;;;;;;5052604;28;20021;-67